x

8447387 - Borden Flats Light At Fall River, Ma (bltm3) Weather Station

9:30 - Thu 30th Jun 2016 All times are EDT. -4 hours from GMT.

  • Wind
    6mph, 8mph gusts
  • Luft Temp 75°f
  • Sea Pressure 1015.3mb
  • 8447387 - Borden Flats Light At Fall River, Ma
  • 8447387 - Borden Flats Light At Fall River, Ma

More Historic Weather Station data

Upgrade to MSW Pro to gain access to the past 30 days of data for over 8000 Wavebouys and Weather Stations around the globe.

Join Pro

Comparision Forecast

View Surf forecast
   
Do 06/30 9:30 6 8 mph 1015.3mb 75f
9:24 7 10 mph 1015.3mb 75f
9:18 6 7 mph 1015.3mb 74f
9:12 7 8 mph 1015.2mb 74f
9:06 7 9 mph 1015.3mb 74f
9:00 8 11 mph 1015.3mb 74f
8:54 7 13 mph 1015.4mb 73f
8:48 8 11 mph 1015.4mb 73f
8:42 9 11 mph 1015.4mb 73f
8:36 7 10 mph 1015.4mb 73f
8:30 9 13 mph 1015.4mb 72f
8:24 9 10 mph 1015.3mb 72f
8:18 9 11 mph 1015.3mb 72f
8:12 8 10 mph 1015.3mb 72f
8:06 5 7 mph 1015.2mb 71f
8:00 2 3 mph 1015.1mb 71f
7:54 2 5 mph 1015.1mb 71f
7:48 5 6 mph 1015mb 70f
7:42 5 9 mph 1015mb 70f
7:36 6 8 mph 1014.9mb 70f
7:30 5 7 mph 1014.8mb 69f
7:24 5 7 mph 1014.7mb 69f
7:18  -  2 mph 1014.6mb 68f
7:12 2 5 mph 1014.5mb 68f
7:06 1 2 mph 1014.5mb 68f
7:00 2
mph
1014.4mb 68f
6:54 1 2 mph 1014.4mb 68f
6:48 1 3 mph 1014.4mb 68f
6:42 2 3 mph 1014.4mb 68f
6:36 3 5 mph 1014.4mb 68f
6:30 1 3 mph 1014.4mb 67f
6:24 1 3 mph 1014.3mb 67f
6:18  -  3 mph 1014.3mb 67f
6:12 2 3 mph 1014.2mb 67f
6:06 2 3 mph 1014.1mb 67f
6:00 2 3 mph 1014mb 67f
5:54 2 6 mph 1014mb 67f
5:48 2 3 mph 1013.9mb 67f
5:42 2 3 mph 1013.8mb 67f
5:36 3 5 mph 1013.8mb 67f
5:30 2 5 mph 1013.7mb 67f
5:24  -  2 mph 1013.7mb 67f
5:18 2 5 mph 1013.6mb 67f
5:12 2 3 mph 1013.6mb 67f
5:06 1 2 mph 1013.4mb 68f
5:00 3 5 mph 1013.3mb 68f
4:54 3 6 mph 1013.2mb 68f
4:48 2 5 mph 1013.2mb 68f
4:42 2 5 mph 1013.2mb 68f
4:36 2 5 mph 1013.1mb 69f
4:30 3 5 mph 1013mb 68f
4:18 5 7 mph 1012.9mb 69f
4:12 2 5 mph 1012.9mb 69f
4:06 3 5 mph 1012.9mb 69f
4:00 2 5 mph 1012.8mb 69f
3:54 3 5 mph 1012.7mb 69f
3:48 3 5 mph 1012.6mb 69f
3:42 5 6 mph 1012.6mb 70f
3:36 6 8 mph 1012.6mb 70f
3:30 2 6 mph 1012.5mb 70f
3:24 3 5 mph 1012.5mb 70f
3:18 1 3 mph 1012.5mb 70f
3:12  -  1 mph 1012.4mb 70f
3:00 2 5 mph 1012.4mb 70f
2:54 3 5 mph 1012.3mb 71f
2:48 5 7 mph 1012.3mb -
2:42 3 6 mph 1012.4mb -
2:36 5 7 mph 1012.3mb -
2:30 3 6 mph 1012.4mb 71f
2:24 5 6 mph 1012.4mb 71f
2:18 5 6 mph - 71f
2:12 3 5 mph - 71f
2:06 6 7 mph - 71f
2:00 6
mph
1012.4mb 71f
1:54 6 7 mph 1012.4mb 71f
1:48 7 8 mph 1012.3mb -
1:42 7 8 mph 1012.3mb -
1:36 6 7 mph 1012.2mb -
1:30 6 7 mph 1012.2mb 70f
1:24 6 7 mph 1012.2mb 70f
1:18 6 7 mph 1012.2mb 70f
1:12 6 7 mph 1012.2mb 70f
1:06 6 7 mph 1012.2mb 70f
1:00 6 7 mph 1012.3mb 70f
12:54 6 7 mph 1012.2mb 70f
12:48 6 7 mph 1012.3mb 70f
12:42 7 8 mph 1012.3mb 70f
12:36 6 7 mph 1012.3mb 70f
12:30 6 7 mph 1012.3mb 70f
12:24 6 7 mph 1012.3mb 70f
12:18 7
mph
1012.3mb 70f
12:12 7 8 mph 1012.3mb 70f
12:06 7 8 mph 1012.3mb 70f
12:00 7 8 mph 1012.3mb 70f
Mi 06/29 11:54 7 9 mph 1012.3mb 71f
11:48 9 10 mph 1012.3mb 71f
11:42 8 10 mph 1012.3mb 71f
11:36 9
mph
1012.3mb 71f
11:30 8 9 mph 1012.2mb 71f
11:24 8 9 mph 1012.3mb 71f
11:18 8 9 mph 1012.3mb -
11:12 7 8 mph 1012.2mb -
11:06 7 8 mph 1012.2mb -
11:00  -  mph 1012.3mb -
10:54  -  mph 1012.2mb -
10:48  -  mph 1012.2mb -
10:42  -  mph 1012.2mb -
10:36  -  mph 1012.2mb -
10:30  -  mph 1012.1mb -
10:24  -  mph 1012mb -
10:18  -  mph 1012mb -
10:12  -  mph 1012mb -
10:06  -  mph 1012mb -
10:00  -  mph 1012.1mb -
9:54  -  mph 1012mb -
9:48 9 11 mph - -
9:42 9 10 mph - -
9:36 9 10 mph - -
9:30  -  mph 1011.8mb -
9:24  -  mph 1011.7mb -
9:18  -  mph 1011.6mb -
9:12  -  mph 1011.6mb -
9:06  -  mph 1011.6mb -
9:00  -  mph 1011.6mb -
8:54  -  mph 1011.5mb -
8:48  -  mph - 72f
8:42  -  mph - 72f
8:36  -  mph - 73f
8:30  -  mph - 73f
8:24  -  mph - 73f
8:18  -  mph 1011.4mb 73f
8:12  -  mph 1011.4mb 73f
8:06  -  mph 1011.4mb 73f
8:00  -  mph - 74f
7:54  -  mph - 74f
7:48  -  mph - 74f
7:42  -  mph - 74f
7:36  -  mph - 74f
7:30  -  mph 1011.4mb -
7:24  -  mph 1011.3mb -
7:18  -  mph 1011.3mb -
7:12  -  mph 1011.2mb -
7:06  -  mph 1011.2mb -
7:00  -  mph 1011.1mb -
6:54  -  mph 1011.1mb -
6:48  -  mph 1011.1mb -
6:42  -  mph 1011mb -
6:36  -  mph 1011mb -
6:30  -  mph 1011.1mb -
6:24  -  mph 1011mb -
6:18 10 14 mph - -
6:12 11 14 mph - -
6:06 11 15 mph - -
6:00 10 13 mph - -
5:54 11 14 mph - -
5:48 11 14 mph - -
5:42 10 14 mph - -
5:36 10 14 mph - -
5:30 10 11 mph 1011mb 75f
5:24 10 14 mph 1011mb 75f
5:18 13 16 mph 1010.9mb 75f
5:12 8 11 mph 1011mb 75f
5:06 11 17 mph 1010.9mb 75f
5:00 9 13 mph 1010.9mb 76f
4:54 14 17 mph 1010.8mb 75f
4:48 14 16 mph 1010.8mb 75f
4:42 14 16 mph 1011mb 75f
4:36 14 16 mph 1010.9mb 75f
4:30 13 17 mph 1010.9mb 75f
4:24 11 15 mph 1010.9mb 76f
4:18 17 22 mph 1010.8mb 75f
4:12 16 21 mph 1010.8mb 75f
4:06 17 21 mph 1010.7mb 75f
4:00 20 22 mph 1010.7mb 76f
3:54 20 24 mph 1010.6mb 75f
3:48 20 22 mph 1010.5mb 76f
3:42 20 23 mph 1010.5mb 75f
3:36 18 22 mph 1010.5mb 74f
3:30 16 18 mph 1010.6mb 74f
3:24 18 20 mph 1010.6mb 74f
3:18 18 22 mph 1010.6mb 73f
3:12 18 21 mph 1010.5mb 74f
3:06 16 18 mph 1010.5mb 74f
3:00 14 17 mph 1010.5mb 75f
2:54 13 16 mph 1010.5mb 76f
2:48 10 15 mph 1010.6mb 77f
2:42 7 11 mph 1010.7mb 76f
2:36 13 14 mph 1010.7mb 75f
2:30 14 16 mph 1010.7mb 75f
2:24 14 16 mph 1010.7mb 74f
2:18 15 16 mph 1010.7mb 74f
2:12 15 16 mph 1010.7mb 74f
2:06 15 16 mph 1010.8mb 74f
2:00 14 16 mph 1010.9mb 75f
1:54 14 15 mph 1010.9mb 75f
1:48 11 15 mph 1010.9mb 75f
1:42 11 14 mph 1010.9mb 75f
1:36 13 14 mph 1011mb 75f
1:30 11 13 mph 1011.1mb 74f
1:24 11 13 mph 1011.2mb 74f
1:18 13 14 mph 1011.1mb 74f
1:12 11 13 mph 1011.2mb 75f
1:06 8 10 mph 1011.2mb 75f
1:00 8 10 mph 1011.1mb 75f
12:54 9 11 mph 1011.2mb 75f
12:48 9 11 mph 1011.3mb 74f
12:42 9 13 mph 1011.4mb 74f
12:36 11 14 mph 1011.4mb 73f
12:30 11 13 mph 1011.6mb 73f
12:24 11 13 mph 1011.7mb 73f
12:18 11
mph
1011.7mb 73f
12:12 9 10 mph 1011.7mb 73f
12:06 10 11 mph 1011.7mb 73f
12:00 9 10 mph 1011.7mb 72f
11:54 10
mph
1011.7mb 73f
11:48 9 10 mph 1011.7mb 73f
11:42 9 11 mph 1011.7mb 72f
11:36 8 10 mph 1011.6mb 72f
11:30 9 10 mph 1011.8mb 72f
11:24 9 11 mph 1011.8mb 72f
11:18 8 10 mph 1011.9mb 71f
11:12 9 10 mph 1011.9mb 71f
11:06 10 11 mph 1012mb 72f
11:00 11 13 mph 1012.1mb 72f
10:54 10 13 mph 1012.1mb 72f
10:48 9 11 mph 1012.1mb 72f
10:42 11 13 mph 1012mb 72f
10:36 10 13 mph 1012mb 72f
10:30 8 10 mph 1012.1mb 72f
10:24 8 10 mph 1012.2mb 71f
10:18 9 10 mph 1012.2mb 71f
10:12 8 9 mph 1012.2mb 71f
10:06 8 9 mph 1012.3mb 71f
10:00 7 8 mph 1012.3mb 71f
9:54 7 8 mph 1012.3mb 71f
9:48 8 9 mph 1012.3mb 71f
9:42 9 10 mph 1012.4mb 71f
9:36 9 10 mph 1012.3mb 71f
9:30 9 10 mph 1012.2mb 71f
9:24 8 10 mph 1012.3mb 71f
9:18 8 10 mph 1012.3mb 71f
9:12 9 11 mph 1012.4mb 71f
9:06 9 10 mph 1012.3mb 71f
9:00 8 9 mph 1012.3mb 71f
8:54 7 9 mph 1012.3mb 71f
8:48 6 7 mph 1012.3mb 71f
8:42 8 9 mph 1012.3mb 71f
8:36 8 9 mph 1012.3mb 71f
8:30 6 8 mph 1012.3mb 71f
8:24 8 9 mph 1012.3mb 71f
8:18 7 9 mph 1012.3mb 71f
8:12 7 9 mph 1012.3mb 71f
8:06 8 10 mph 1012.2mb 71f
8:00 8 10 mph 1012.1mb 71f
7:54 8 10 mph 1012.1mb 71f
7:48 6 9 mph 1012.1mb 71f
7:42 7 8 mph 1012.1mb 71f
7:36 8 9 mph 1012.1mb 71f
7:30 7 8 mph 1012.3mb 71f
7:24 5 8 mph 1012.3mb 71f
7:18 3 5 mph 1012.2mb 71f
7:12 3
mph
1012.1mb 71f
7:06 5 7 mph 1012.1mb 71f
7:00 5 7 mph 1012.1mb 71f
6:54 7 9 mph 1012.1mb 70f
6:48 7 9 mph 1012.1mb 71f
6:42 7 9 mph 1012.1mb 70f
6:36 7 9 mph 1012.1mb 70f
6:30 6 7 mph 1012.1mb 70f
6:24 6 8 mph 1012.1mb 70f
6:18 5 6 mph 1012.2mb 70f
6:12 3 5 mph 1012.2mb 70f
6:06 3 6 mph 1012.1mb 70f
5:54 5 7 mph 1012.1mb 70f
5:48 6 7 mph 1012.1mb 70f
5:42 5 7 mph 1012.2mb 70f
5:36 5 6 mph 1012.1mb 70f
5:30 5 6 mph 1012.2mb 70f
5:24 3 5 mph 1012.2mb 70f
5:18 5 7 mph 1012.1mb 70f
5:12 6 8 mph 1012.1mb 70f
5:06 7 8 mph 1012.2mb 70f
5:00 6 8 mph 1012.1mb 70f
4:54 6 9 mph 1012.1mb 70f
4:48 6 10 mph 1012.2mb 70f
4:42 6 9 mph 1012.2mb 70f
4:36 7 9 mph 1012.2mb 70f
4:30 6 9 mph 1012.2mb 70f
4:24 6 9 mph 1012.3mb 70f
4:18 6 9 mph 1012.3mb 70f
4:12 8 11 mph 1012.2mb 70f
4:06 8 10 mph 1012.2mb 70f
4:00 7 10 mph 1012.2mb 70f
3:54 8 11 mph 1012.2mb 70f
3:48 8 11 mph 1012.2mb 70f
3:42 8 10 mph 1012.1mb 70f
3:36 9 11 mph 1012.1mb 70f
3:30 9 11 mph 1012.1mb 70f
3:24 8 13 mph 1012.1mb 70f
3:18 9 11 mph 1012.1mb 70f
3:12 9 16 mph 1012.1mb 70f
3:06 9 16 mph 1012.2mb 70f
3:00 8 10 mph 1012.2mb 70f
2:54 8 11 mph 1012.3mb 70f
2:48 8 10 mph 1012.4mb 70f
2:42 7 13 mph 1012.4mb 70f
2:36 7 8 mph 1012.3mb 70f
2:30 6 8 mph 1012.3mb 70f
2:24 7 9 mph 1012.4mb 70f
2:18 7 10 mph 1012.4mb 70f
2:12 7 9 mph 1012.5mb 70f
2:00 8 10 mph 1012.7mb 70f
1:54 8 10 mph 1012.7mb 70f
1:48  -  mph 1012.7mb 69f
1:36  -  mph 1012.8mb 69f
1:30 8 10 mph 1012.8mb 69f
1:24 8 13 mph 1012.9mb 69f
1:18 9 14 mph 1013mb 70f
1:12 11 15 mph 1013.1mb 70f
1:06 14 16 mph 1013.2mb 70f
1:00 13 18 mph 1013.2mb 70f
12:54 18 21 mph 1013.2mb 71f
12:48 15 18 mph 1013.2mb 71f
12:42 14 18 mph 1013.3mb 71f
12:36 13 15 mph 1013.3mb 71f
12:30 14 17 mph 1013.3mb 71f
12:24 13 16 mph 1013.3mb 71f
12:18 13 17 mph 1013.4mb 71f
12:12 15 20 mph 1013.4mb 71f
12:06 15 21 mph 1013.3mb 71f
12:00 15 20 mph 1013.4mb 72f
Di 06/28 11:54 10 13 mph 1013.4mb 72f
11:48  -  mph 1013.4mb -
11:42  -  mph 1013.5mb -
11:36  -  mph 1013.5mb -
11:30 9 11 mph 1013.6mb 71f
11:24 10 13 mph 1013.6mb 72f
11:18 7 9 mph 1013.7mb 72f
11:12 9 13 mph 1013.8mb 72f
11:06 7 10 mph 1013.7mb 72f
11:00  -  mph 1013.9mb -
10:54  -  mph 1014mb -
10:48 9 13 mph - -
10:42 7 10 mph - -
10:36 9 14 mph - -
10:30  -  mph 1013.7mb 71f
10:24  -  mph 1013.7mb 71f
10:18  -  mph 1013.6mb -
10:12  -  mph 1013.6mb -
10:06  -  mph 1013.9mb -
10:00  -  mph 1014mb -
9:54  -  mph 1014mb -
9:48  -  mph 1014.1mb -
9:42  -  mph 1014.2mb -
9:36  -  mph 1014.3mb -
9:30  -  mph 1014.2mb -
9:24  -  mph 1014.2mb -
9:18  -  mph 1014mb 71f
9:12  -  mph 1014.2mb 71f
9:06  -  mph 1014.1mb 71f
9:00  -  mph - 71f
8:54  -  mph - 71f
8:48  -  mph 1014.2mb -
8:42  -  mph 1014.3mb -
8:36  -  mph 1014.2mb -
8:30  -  mph 1014.2mb -
8:18  -  mph 1014.2mb 72f
8:12  -  mph 1014.1mb 72f
8:06  -  mph 1014.2mb 72f
8:00  -  mph 1014.1mb -
7:54  -  mph 1014.2mb -
7:48  -  mph 1014.2mb -
7:42  -  mph 1014.2mb -
7:36  -  mph 1014.2mb -
7:30  -  mph 1014.2mb -
7:24  -  mph 1014mb -
7:18  -  mph 1014.2mb -
7:12  -  mph 1014.2mb -
7:06  -  mph 1014mb -
7:00  -  mph 1014mb -
6:54  -  mph 1014.1mb -
6:48  -  mph 1014.1mb -
6:42  -  mph 1014.2mb -
6:36  -  mph 1014.3mb -
6:30  -  mph 1014.2mb -
6:24  -  mph 1014.1mb -
6:18  -  mph 1014.1mb -
6:12  -  mph 1014.1mb -
6:06  -  mph 1014.2mb -
6:00  -  mph 1014.2mb 74f
5:54  -  mph 1014.2mb 74f
5:48  -  mph - 74f
5:42  -  mph - 73f
5:36  -  mph - 73f
5:30 15 17 mph 1014.1mb 73f
5:24 11 20 mph 1014.2mb 74f
5:18 14 22 mph 1014.1mb 73f
5:12 15 18 mph 1014.3mb 73f
5:06 11 15 mph 1014.4mb 74f
5:00 11 15 mph 1014.5mb 74f
4:54 14 18 mph 1014.4mb 73f
4:48 13 16 mph 1014.5mb 73f
4:42 10 14 mph 1014.4mb 73f
4:36 11 15 mph 1014.4mb 73f
4:30 9 13 mph 1014.5mb 73f
4:24 9 14 mph 1014.8mb 73f
4:18 10 13 mph 1014.9mb 72f
4:12 15 22 mph 1015mb 72f
4:06 14 18 mph 1015mb 72f
4:00 10 14 mph 1015mb 73f
3:48 14 17 mph 1015mb 73f
3:42 10 16 mph 1014.9mb 73f
3:36 11 15 mph 1015mb 73f
3:30 14 17 mph 1015.1mb 73f
3:24 11 14 mph 1015.1mb 73f
3:18 14 18 mph 1015.3mb 73f
3:12 15 20 mph 1015.3mb 73f
3:00 13 16 mph 1015.3mb 73f
2:54 9 14 mph 1015.4mb 73f
2:48 10 13 mph 1015.4mb 73f
2:42 11 15 mph 1015.4mb 73f
2:36 11 14 mph 1015.3mb 73f
2:30 10 13 mph 1015.4mb 73f
2:24 14 16 mph 1015.4mb 73f
2:18 13 16 mph 1015.3mb 73f
2:12 11 14 mph 1015.3mb 74f
2:06 14 17 mph 1015.4mb 74f
2:00 16 18 mph 1015.5mb 73f
1:54 16 20 mph 1015.4mb 73f
1:48 11 20 mph 1015.4mb 74f
1:42 13 15 mph 1015.6mb 73f
1:36 13 16 mph 1015.7mb 74f
1:30 9 14 mph 1015.7mb 74f
1:24 13 17 mph 1015.8mb 74f
1:18 11 15 mph 1015.8mb 74f
1:12 11 14 mph 1015.8mb 74f
1:06 14 18 mph 1015.8mb 74f
1:00 15 17 mph 1015.9mb 74f
12:54 13 15 mph 1015.9mb 74f
12:48 11 17 mph 1015.9mb 73f
12:42 9 14 mph 1015.9mb 73f
12:36 9 13 mph 1016mb 73f
12:30 10 14 mph 1016.1mb 73f
12:24 10 13 mph 1016mb 72f
12:18 13 15 mph 1016.1mb 72f
12:12 10 16 mph 1016.2mb 73f
12:06 9 11 mph 1016.2mb 73f
12:00 8 13 mph 1016.2mb 73f
11:54 10 14 mph 1016.2mb 73f
11:48 11 15 mph 1016.3mb 73f
11:42 13 16 mph 1016.4mb 73f
11:36 14 16 mph 1016.4mb 73f
11:30 10 13 mph 1016.4mb 73f
11:24 11 14 mph 1016.3mb 73f
11:18 13 16 mph 1016.3mb 73f
11:12 13 15 mph 1016.3mb 73f
11:06 13 17 mph 1016.3mb 73f
11:00 14 16 mph 1016.3mb 72f
10:54 14 16 mph 1016.3mb 72f
10:48 13 15 mph 1016.4mb 72f
10:42 13 14 mph 1016.5mb 72f
10:36 14 15 mph 1016.5mb 72f
10:30 15 17 mph 1016.4mb 72f
10:24 14 15 mph 1016.5mb 72f
10:18 13 16 mph 1016.5mb 72f
10:12 13 15 mph 1016.6mb 72f
10:06 11 15 mph 1016.6mb 72f
10:00 14 20 mph 1016.6mb 72f
9:54 13 16 mph 1016.6mb 72f
9:48  -  mph 1016.7mb 72f
9:42  -  mph 1016.8mb 72f
9:36  -  mph 1016.8mb 72f
9:30 13 18 mph 1016.8mb 72f
9:24 14 18 mph 1016.7mb 72f
9:18 14 18 mph 1016.8mb 72f
9:12 13 17 mph 1016.8mb 72f
9:06 11 15 mph 1016.8mb 72f
9:00 11 15 mph 1016.8mb 72f
8:54 10 13 mph 1016.8mb 72f
8:48 9 13 mph 1016.8mb 71f
8:42 10 14 mph 1016.9mb 71f
8:36 8 10 mph 1016.9mb 71f
8:30 9 13 mph 1016.8mb 71f
8:24 8 10 mph 1016.8mb 71f
8:18 9 13 mph 1016.8mb 71f
8:12 8 10 mph 1016.8mb 71f
8:06 8 11 mph 1016.8mb 71f
8:00 8 13 mph 1016.8mb 71f
7:54 9 11 mph 1016.7mb 71f
7:48 8 10 mph 1016.7mb 71f
7:42 10 14 mph 1016.6mb 71f
7:36 9 14 mph 1016.6mb 71f
7:30 9 13 mph 1016.6mb 71f
7:24 9 11 mph 1016.6mb 71f
7:18 10 13 mph 1016.6mb 71f
7:12 9 13 mph 1016.6mb 71f
7:06 8 11 mph 1016.6mb 71f
7:00 8 11 mph 1016.6mb -
6:54 8 11 mph 1016.5mb -
6:48 8 14 mph 1016.4mb -
6:42 9 13 mph 1016.4mb -
6:36 9 13 mph 1016.4mb -
6:30 10 14 mph 1016.3mb 70f
6:24 9 11 mph 1016.3mb 70f
6:18 8 10 mph 1016.3mb 70f
6:12 8 10 mph 1016.2mb 70f
6:06 8 10 mph 1016.2mb 70f
6:00 7 9 mph 1016.2mb 70f
5:54 8 11 mph 1016.2mb 70f
5:48 8 10 mph 1016.2mb 70f
5:42 7 9 mph 1016.2mb 70f
5:36 7 9 mph 1016.2mb 70f
5:30 9 13 mph 1016.2mb 70f
5:18 7 10 mph 1016.2mb 70f
5:12 7 9 mph 1016.2mb 70f
5:06 7 10 mph 1016.2mb 70f
5:00 6 8 mph 1016.2mb 70f
4:54 8 10 mph 1016.2mb 70f
4:48 9 13 mph 1016.2mb 70f
4:42 9 15 mph 1016.2mb 70f
4:36 10 14 mph 1016.2mb 70f
4:30 9 13 mph 1016.2mb 70f
4:24 9 13 mph 1016.2mb 70f
4:18 10 16 mph 1016.2mb 70f
4:12 10 15 mph 1016.1mb 70f
4:06 10 14 mph 1016.1mb 70f
4:00 10 13 mph 1016.1mb 70f
3:54 10 15 mph 1016.2mb 70f
3:48 10 16 mph 1016.2mb 70f
3:42 10 15 mph 1016.2mb 70f
3:36 8 11 mph 1016.3mb 70f
3:30 11 15 mph 1016.3mb 70f
3:24 10 14 mph 1016.4mb 70f
3:18 10 15 mph 1016.4mb 70f
3:12 9 11 mph 1016.6mb 70f
3:06 10 14 mph 1016.6mb 70f
3:00 9 13 mph 1016.7mb 70f
2:54 9 11 mph 1016.8mb 70f
2:48 8 11 mph 1016.9mb -
2:42 9 14 mph 1016.9mb -
2:36 8 11 mph 1016.9mb -
2:30 10 14 mph 1017mb 70f
2:24 10 14 mph 1017mb 70f
2:18 9 11 mph 1017.1mb 70f
2:12 7 13 mph 1017.1mb 70f
2:06 10 13 mph 1017.1mb 70f
2:00 9 11 mph 1017.1mb 70f
1:54 9 13 mph 1017.1mb 70f
1:48 9 14 mph - -
1:42 8 11 mph - -
1:36 10 13 mph - -
1:30 9 11 mph 1017.3mb 70f
1:24 8 10 mph 1017.3mb 70f
1:18 9 13 mph 1017.4mb 70f
1:12 9 14 mph 1017.4mb 70f
1:06 11 16 mph 1017.4mb 70f
1:00 13 16 mph 1017.4mb 70f
12:54 10 14 mph 1017.5mb 70f
12:48 11 15 mph 1017.5mb 70f
12:42 9 13 mph 1017.5mb 70f
12:36 9 13 mph 1017.6mb 70f
12:30 9 11 mph 1017.7mb 70f
12:24 11 14 mph 1017.6mb 70f
12:18 9 13 mph 1017.7mb 70f
12:12 10 13 mph 1017.7mb 70f
12:06 10 15 mph 1017.7mb 70f
12:00 11 15 mph 1017.8mb 70f
Mo 06/27 11:54 11 14 mph 1017.9mb 70f
11:48  -  mph 1017.9mb 70f
11:42  -  mph 1017.9mb 70f
11:36  -  mph 1017.8mb 70f
11:30 11 18 mph 1017.8mb 70f
11:24 13 16 mph 1017.9mb 70f
11:18 13 17 mph 1018mb 70f
11:12 14 18 mph 1018mb 70f
11:06 13 15 mph 1018mb 70f
11:00  -  mph - 70f
10:54  -  mph - 70f
10:48  -  mph 1018mb -
10:42  -  mph 1018mb -
10:36  -  mph 1018.1mb -
10:30  -  mph 1018mb -
10:24  -  mph 1018mb -
10:18  -  mph 1018mb 70f
10:12  -  mph 1017.9mb 70f
10:06  -  mph 1017.9mb 70f
10:00  -  mph 1017.9mb 70f
9:54  -  mph 1017.9mb 71f
9:48  -  mph 1018mb -
9:42  -  mph 1018mb -
9:36  -  mph 1018mb -
9:30  -  mph 1017.9mb -
9:24  -  mph 1017.9mb -
9:18  -  mph 1017.9mb -
9:12  -  mph 1017.7mb -
9:06  -  mph 1017.7mb -
9:00  -  mph 1017.6mb 71f
8:54  -  mph 1017.6mb 71f
8:48  -  mph 1017.5mb -
8:42  -  mph 1017.5mb -
8:36  -  mph 1017.4mb -
8:30  -  mph 1017.4mb -
8:24  -  mph 1017.4mb -
8:18  -  mph 1017.4mb -
8:12  -  mph 1017.5mb -
8:06  -  mph 1017.4mb -
8:00  -  mph 1017.4mb -
7:54  -  mph 1017.4mb -
7:48  -  mph 1017.4mb -
7:42  -  mph 1017.4mb -
7:36  -  mph 1017.3mb -
7:30  -  mph 1017.3mb -
7:24  -  mph 1017.3mb -
7:18  -  mph 1017.3mb -
7:12  -  mph 1017.3mb -
7:06  -  mph 1017.2mb -
6:54  -  mph 1017.4mb -
6:48  -  mph 1017.5mb -
6:42  -  mph 1017.5mb -
6:36  -  mph 1017.5mb -
6:30  -  mph 1017.5mb -
6:24  -  mph 1017.6mb -
6:18  -  mph - 72f
6:12  -  mph - 72f
6:06  -  mph - 72f
6:00  -  mph 1017.5mb -
5:54  -  mph 1017.5mb -
5:48  -  mph 1017.6mb 72f
5:42  -  mph 1017.6mb 73f
5:36  -  mph 1017.7mb 73f
5:30 15 22 mph 1017.7mb 72f
5:24 15 20 mph 1017.6mb 72f
5:18 16 21 mph 1017.7mb 73f
5:12 16 22 mph 1017.7mb 72f
5:06 14 18 mph 1017.8mb 72f
5:00 17 23 mph 1017.7mb 72f
4:54 16 20 mph 1017.8mb 72f
4:48 13 18 mph 1017.8mb 72f
4:42 15 22 mph 1017.9mb 72f
4:36 16 22 mph 1017.9mb 72f
4:30 14 20 mph 1018.1mb 72f
4:24 16 22 mph 1018mb 72f
4:18 18 22 mph 1018mb 71f
4:12 15 21 mph 1018.1mb 72f
4:06 14 18 mph 1018.1mb 72f
4:00 14 17 mph 1018.1mb 72f
3:54 16 22 mph 1018.1mb 72f
3:48 16 21 mph 1018.1mb 72f
3:42 20 25 mph 1018.1mb 72f
3:36 17 21 mph 1018.1mb 72f
3:30 20 24 mph 1018.2mb 72f
3:24 20 26 mph 1018.1mb 73f
3:18 15 21 mph 1018.2mb 73f
3:12 18 26 mph 1018.1mb 73f
3:06 18 23 mph 1018.2mb 73f
3:00 20 23 mph 1018.1mb 74f
2:54 21 25 mph 1018mb 74f
2:48  -  mph 1018mb 74f
2:42  -  mph 1018.1mb 74f
2:36  -  mph 1018.1mb 74f
2:30 17 22 mph 1018.2mb 74f
2:24 17 22 mph 1018.2mb 74f
2:18 16 21 mph 1018.2mb 74f
2:12 21 25 mph 1018.2mb 74f
2:06 14 21 mph 1018.3mb 75f
2:00 14 17 mph 1018.2mb 75f
1:54 16 23 mph 1018.3mb 74f
1:48 17 21 mph 1018.4mb 74f
1:42 16 22 mph 1018.5mb 74f
1:36 16 22 mph 1018.6mb 74f
1:30 16 21 mph 1018.7mb 75f
1:24 16 21 mph 1018.8mb 74f
1:18 14 18 mph 1018.8mb 74f
1:12 14 18 mph 1018.8mb 74f
1:06 15 20 mph 1018.8mb 74f
1:00 13 17 mph 1018.9mb 74f
12:54 15 18 mph 1019mb 75f
12:48 14 18 mph 1019mb 74f
12:42 14 18 mph 1019mb 73f
12:36 18 22 mph 1019mb 74f
12:30 20 23 mph 1019.1mb 74f
12:24 20 22 mph 1019.1mb 74f
12:18 11 15 mph 1019.3mb 74f
12:12 15 20 mph 1019.3mb 73f
12:06 15 18 mph 1019.3mb 74f
12:00 15 20 mph 1019.4mb 73f
11:54 17 22 mph 1019.4mb 73f
11:48 17 21 mph 1019.3mb 72f
11:42 14 18 mph 1019.4mb 72f
11:36 11 15 mph 1019.4mb 73f
11:30 14 15 mph 1019.4mb 73f
11:24 13 17 mph 1019.4mb 73f
11:18 11 16 mph 1019.4mb 73f
11:12 14 21 mph 1019.5mb 73f
11:06 14 20 mph 1019.4mb 73f
11:00 11 16 mph 1019.5mb 73f
10:54 10 14 mph 1019.6mb 73f
10:48 11 15 mph 1019.6mb 73f
10:42 11 15 mph 1019.6mb 73f
10:36 11 16 mph 1019.6mb 73f
10:30 14 18 mph 1019.6mb 72f
10:24 15 16 mph 1019.5mb 71f
10:18 15 16 mph 1019.6mb 71f
10:12 15 16 mph 1019.5mb 71f
10:06 13 15 mph 1019.6mb 72f
10:00 11 14 mph 1019.7mb 71f
9:54 11 13 mph 1019.6mb 71f
9:48 11 15 mph 1019.7mb 71f
9:42 14 16 mph 1019.8mb 71f
9:36 14 16 mph 1019.9mb 71f
9:30 14 16 mph 1020mb 71f
9:24 14 16 mph 1020mb 71f
9:18 14 16 mph 1020mb 71f
9:12 11 14 mph 1020.1mb 70f
9:06 13 14 mph 1020.1mb 70f
9:00 13 14 mph 1020.2mb 70f
8:54 14 15 mph 1020.3mb 70f
8:48 10 13 mph 1020.4mb 70f
8:42 11 14 mph 1020.4mb 70f
8:36 13 15 mph 1020.4mb 70f
8:30 9 13 mph 1020.5mb 70f
8:24 13 15 mph 1020.4mb 69f
8:18 11 14 mph 1020.4mb 70f
8:12 10 13 mph 1020.3mb 69f
8:06 6 8 mph 1020.4mb 69f
8:00 8 11 mph 1020.4mb 69f
7:54 10 13 mph 1020.4mb 69f
7:48 13 15 mph 1020.4mb 69f
7:42 10 13 mph 1020.5mb 69f
7:36 9 14 mph 1020.6mb 68f
7:30 10 15 mph 1020.6mb 68f
7:24 11 14 mph 1020.7mb 68f
7:18 14 15 mph 1020.6mb 68f
7:12 11 16 mph 1020.7mb 68f
7:06 10 14 mph 1020.6mb 67f
7:00 13 16 mph 1020.6mb 67f
6:54 10 14 mph 1020.7mb 67f
6:48 10 16 mph 1020.7mb 67f
6:42 9 13 mph 1020.7mb 67f
6:36 11 15 mph 1020.8mb 67f
6:30 9 11 mph 1020.8mb 67f
6:24 8 11 mph 1020.8mb 67f
6:18 10 14 mph 1020.7mb 67f
6:12 10 13 mph 1020.7mb 66f
6:06 9 13 mph 1020.7mb 66f
6:00 8 9 mph 1020.7mb 66f
5:54 7 9 mph 1020.8mb 65f
5:48 8 10 mph 1020.7mb 65f
5:42 8 9 mph 1020.7mb 65f
5:36 7 8 mph 1020.6mb 65f
5:30 6 7 mph 1020.6mb 65f
5:24 6 7 mph 1020.6mb 66f
5:18 5 7 mph 1020.6mb 66f
5:12 7 10 mph 1020.6mb 66f
5:06 8 11 mph 1020.5mb 66f
5:00 9 11 mph 1020.5mb 66f
4:54 9 11 mph 1020.5mb 66f
4:48 9 10 mph 1020.5mb 66f
4:42 9 13 mph 1020.5mb 66f
4:36 9 13 mph 1020.5mb 66f
4:30 8 11 mph 1020.5mb 66f
4:24 10 14 mph 1020.5mb 66f
4:18 7 11 mph 1020.5mb 66f
4:12 7 13 mph 1020.4mb 66f
4:06 11 14 mph 1020.4mb 66f
4:00 10 14 mph 1020.4mb 66f
3:54 11 15 mph 1020.3mb 66f
3:48 11 15 mph 1020.4mb 66f
3:42 13 16 mph 1020.4mb 66f
3:36 14 16 mph 1020.4mb 66f
3:30 14 16 mph 1020.4mb 66f
3:24 14 16 mph 1020.4mb 66f
3:18 13 16 mph 1020.5mb 66f
3:12 11 15 mph 1020.5mb 66f
3:06 11 14 mph 1020.5mb 66f
3:00 10 13 mph 1020.5mb 66f
2:54 10 13 mph 1020.5mb 66f
2:48 9 14 mph 1020.5mb -
2:42 15 17 mph 1020.4mb -
2:36 16 17 mph 1020.4mb -
2:30 16 18 mph 1020.4mb 66f
2:24 14 16 mph 1020.4mb 66f
2:18 11 14 mph 1020.4mb 66f
2:12 13 15 mph 1020.3mb 66f
2:06 14 15 mph 1020.3mb 66f
2:00 15 16 mph 1020.3mb 66f
1:54 14 16 mph 1020.4mb 66f
1:48 16 18 mph 1020.4mb -
1:42 16 18 mph 1020.4mb -
1:36 16 18 mph 1020.3mb -
1:30 14 16 mph 1020.3mb 67f
1:24 14 16 mph 1020.2mb 67f
1:18 14 15 mph 1020.3mb 67f
1:12 14 15 mph 1020.4mb 67f
1:06 13 16 mph 1020.5mb 67f
1:00 14 16 mph 1020.6mb 67f
12:54 14 16 mph 1020.7mb 67f
12:48 14 15 mph 1020.7mb 67f
12:42 14 15 mph 1020.6mb 67f
12:36 14 16 mph 1020.6mb 67f
12:30 10 14 mph 1020.6mb 66f
12:24 8 10 mph 1020.7mb 66f
12:18 8 10 mph 1020.7mb 66f
12:12 8 10 mph 1020.8mb 66f
12:06 7 9 mph 1020.8mb 66f
12:00 8 10 mph 1020.8mb 66f
So 06/26 11:54 7 9 mph 1020.8mb 66f
11:48 8 10 mph 1020.8mb 66f
11:42 7 9 mph 1020.8mb 65f
11:36 6 7 mph 1020.9mb 65f
11:30 6 7 mph 1020.8mb 65f
11:24 7 11 mph 1020.7mb 65f
11:18 6 8 mph 1020.8mb 66f
11:12 5 8 mph 1020.8mb 66f
11:06 6 8 mph 1020.8mb 65f
11:00  -  mph 1020.8mb -
10:54  -  mph 1020.9mb -
10:48  -  mph 1020.9mb -
10:42  -  mph 1020.9mb -
10:36  -  mph 1021mb -
10:30  -  mph 1021mb -
10:24  -  mph 1021mb -
10:18  -  mph 1021mb 66f
10:12  -  mph 1021.1mb 66f
10:06  -  mph 1021mb 66f
10:00  -  mph 1021mb 66f
9:54  -  mph 1021.1mb 67f
9:48  -  mph 1021.1mb 67f
9:42  -  mph 1021.1mb 67f
9:36  -  mph 1021.1mb 67f
9:30  -  mph 1021.1mb -
9:24  -  mph 1021.1mb -
9:18  -  mph 1021mb -
9:12  -  mph 1021.1mb -
9:06  -  mph 1021.1mb -
9:00  -  mph 1021.1mb -
8:54  -  mph 1021.1mb -
8:48  -  mph 1021.1mb -
8:42  -  mph 1021.1mb -
8:36  -  mph 1021.2mb -
8:30  -  mph 1021.2mb -
8:24  -  mph 1021.2mb -
8:18  -  mph 1021.3mb 69f
8:12  -  mph 1021.3mb 70f
8:06  -  mph 1021.3mb 70f
8:00  -  mph 1021.3mb 70f
7:54  -  mph 1021.3mb 70f
7:48  -  mph 1021.4mb 71f
7:42  -  mph 1021.5mb 71f
7:36  -  mph 1021.5mb 71f
7:30 8 10 mph 1021.6mb -
7:24 9 11 mph 1021.6mb -
7:18  -  mph 1021.6mb 71f
7:12  -  mph 1021.6mb 71f
7:06  -  mph 1021.6mb 72f
7:00  -  mph 1021.7mb -
6:54  -  mph 1021.8mb -
6:48  -  mph 1021.8mb -
6:42  -  mph 1021.8mb -
6:36  -  mph 1021.8mb -
6:30  -  mph 1021.8mb -
6:24  -  mph 1021.8mb -
6:18  -  mph 1022mb 73f
6:12  -  mph 1022mb 73f
6:06  -  mph 1022mb 72f
6:00  -  mph 1022mb -
5:54  -  mph 1022mb -
5:48  -  mph 1022.1mb -
5:42  -  mph 1022.2mb -
5:36  -  mph 1022.2mb -
5:30 13 16 mph 1022.2mb 72f
5:24 14 17 mph 1022.2mb 73f
5:18 15 18 mph 1022.3mb 72f
5:12 14 18 mph 1022.4mb 73f
5:06 9 14 mph 1022.5mb 73f
5:00 15 16 mph 1022.5mb 73f
4:54 14 16 mph 1022.4mb 73f
4:48 15 18 mph 1022.5mb 72f
4:42 15 18 mph 1022.5mb 73f
4:36 15 18 mph 1022.6mb 73f
4:30 15 17 mph 1022.6mb 72f
4:24 15 20 mph 1022.7mb 72f
4:18 13 18 mph 1022.8mb 73f
4:12 16 20 mph 1022.8mb 72f
4:06 17 21 mph 1022.7mb 72f
4:00 14 17 mph 1022.7mb 72f
3:54 11 16 mph 1022.7mb 73f
3:48 14 17 mph 1022.8mb 73f
3:42 13 15 mph 1022.9mb 73f
3:36 16 20 mph 1022.9mb 73f
3:30 15 18 mph 1022.9mb 72f
3:24 14 16 mph 1023mb 73f
3:18 15 18 mph 1023mb 72f
3:12 16 20 mph 1023mb 72f
3:06 16 20 mph 1023.1mb 73f
3:00 16 20 mph 1023.2mb 72f
2:54 16 18 mph 1023.2mb 73f
2:48 16 18 mph 1023.2mb 72f
2:42 16 20 mph 1023.1mb 72f
2:36 16 18 mph 1023.1mb 72f
2:30 16 17 mph 1023.1mb 73f
2:24 17 20 mph 1023.1mb 72f
2:18 16 18 mph 1023.2mb 72f
2:12 15 20 mph 1023.1mb 73f